Ringgold, Nebraska
Current Conditions -  °F | °C
As of 1:53 AM on Sunday 23 Nov 2014 (Local Time) from KLBF Reporting Station
Broken Clouds Broken Clouds  
Wind Chill: 30°   Ceiling: 11000
Heat Index: 34°   Visibility: 10mi
Dew Point: 25°   Wind: 5mph
Humidity: 70%   Direction: 310°NW
Pressure: 29.48"   Gusts: NA
Location:  41.5681°N, 101.06°W
Report Text: KLBF 230753Z AUTO 31004KT 10SM BKN110 01/M04 A2948 RMK AO2 SLP978 T00111039 FZRANO $
Loading
Personal Weather Stations






























Interactive Weather Map New forecast layout! Learn more

10-Day Weather Forecast

Advertisements
Track Severe Weather on mobile